createdAt,value
2018-04-16T00:00:30.845Z,54.4
2018-04-16T00:01:21.163Z,54.4
2018-04-16T00:02:10.659Z,54.4
2018-04-16T00:03:01.340Z,54.3
2018-04-16T00:03:51.338Z,54.3
2018-04-16T00:04:41.174Z,54.3
2018-04-16T00:05:30.969Z,54.3
2018-04-16T00:06:21.267Z,54.3
2018-04-16T00:07:11.065Z,54.3
2018-04-16T00:08:01.657Z,54.3
2018-04-16T00:08:51.753Z,54.3
2018-04-16T00:09:41.558Z,54.3
2018-04-16T00:10:31.631Z,54.3
2018-04-16T00:11:21.656Z,54.3
2018-04-16T00:12:11.423Z,54.3
2018-04-16T00:13:01.801Z,54.3
2018-04-16T00:13:51.560Z,54.3
2018-04-16T00:14:42.187Z,54.3
2018-04-16T00:15:32.303Z,54.3
2018-04-16T00:16:21.777Z,54.2
2018-04-16T00:17:12.107Z,54.2
2018-04-16T00:18:02.173Z,54.2
2018-04-16T00:18:51.960Z,54.2
2018-04-16T00:19:42.290Z,54.2
2018-04-16T00:20:31.808Z,54.2
2018-04-16T00:21:22.412Z,54.2
2018-04-16T00:22:12.467Z,54.2
2018-04-16T00:23:02.565Z,54.1
2018-04-16T00:23:52.605Z,54.1
2018-04-16T00:24:42.402Z,54.1
2018-04-16T00:25:33.012Z,54.1
2018-04-16T00:26:23.091Z,54.1
2018-04-16T00:27:12.874Z,54.1
2018-04-16T00:28:02.638Z,54.1
2018-04-16T00:28:52.980Z,54.1
2018-04-16T00:29:43.071Z,54.1
2018-04-16T00:30:33.132Z,54.1
2018-04-16T00:31:22.635Z,54.1
2018-04-16T00:32:12.970Z,54.1
2018-04-16T00:33:03.025Z,54.1
2018-04-16T00:33:53.645Z,54.1
2018-04-16T00:34:43.703Z,54.1
2018-04-16T00:35:33.227Z,54.1
2018-04-16T00:36:23.274Z,54
2018-04-16T00:37:13.604Z,54
2018-04-16T00:38:03.971Z,54
2018-04-16T00:38:53.457Z,54
2018-04-16T00:39:44.077Z,54
2018-04-16T00:40:33.870Z,53.9
2018-04-16T00:41:24.238Z,54
2018-04-16T00:42:14.275Z,54
2018-04-16T00:43:04.108Z,54
2018-04-16T00:43:53.917Z,53.9
2018-04-16T00:44:44.246Z,53.9
2018-04-16T00:45:34.575Z,53.9
2018-04-16T00:46:24.367Z,53.9
2018-04-16T00:47:14.413Z,53.9
2018-04-16T00:48:04.459Z,53.9
2018-04-16T00:48:54.234Z,53.9
2018-04-16T00:49:44.290Z,53.9
2018-04-16T00:50:34.649Z,53.9
2018-04-16T00:51:24.705Z,53.9
2018-04-16T00:52:15.083Z,53.9
2018-04-16T00:53:04.327Z,53.9
2018-04-16T00:53:54.648Z,53.9
2018-04-16T00:54:44.406Z,53.9
2018-04-16T00:55:34.479Z,53.9
2018-04-16T00:56:25.086Z,53.9
2018-04-16T00:57:15.228Z,53.8
2018-04-16T00:58:04.953Z,53.9
2018-04-16T00:58:54.735Z,53.8
2018-04-16T00:59:45.350Z,53.8
2018-04-16T01:00:35.150Z,53.8
2018-04-16T01:01:25.473Z,53.8
2018-04-16T01:02:15.830Z,53.8
2018-04-16T01:03:05.031Z,53.8
2018-04-16T01:03:55.377Z,53.8
2018-04-16T01:04:45.988Z,53.8
2018-04-16T01:05:36.098Z,53.8
2018-04-16T01:06:25.850Z,53.8
2018-04-16T01:07:15.912Z,53.8
2018-04-16T01:08:06.000Z,53.8
2018-04-16T01:08:55.755Z,53.8
2018-04-16T01:09:46.379Z,53.8
2018-04-16T01:10:35.903Z,53.8
2018-04-16T01:11:26.498Z,53.7
2018-04-16T01:12:16.284Z,53.8
2018-04-16T01:13:05.807Z,53.7
2018-04-16T01:13:56.166Z,53.7
2018-04-16T01:14:45.918Z,53.7
2018-04-16T01:15:36.540Z,53.7
2018-04-16T01:16:26.350Z,53.7
2018-04-16T01:17:16.986Z,53.7
2018-04-16T01:18:07.054Z,53.7
2018-04-16T01:18:57.105Z,53.7
2018-04-16T01:19:46.871Z,53.6
2018-04-16T01:20:37.216Z,53.6
2018-04-16T01:21:26.441Z,53.6
2018-04-16T01:22:17.378Z,53.6
2018-04-16T01:23:07.409Z,53.6
2018-04-16T01:23:57.179Z,53.6
2018-04-16T01:24:47.295Z,53.6
2018-04-16T01:25:36.781Z,53.6
2018-04-16T01:26:27.689Z,53.6
2018-04-16T01:27:17.439Z,53.6
2018-04-16T01:28:07.500Z,53.6
2018-04-16T01:28:57.577Z,53.6
2018-04-16T01:29:47.954Z,53.6
2018-04-16T01:30:37.733Z,53.6
2018-04-16T01:31:26.622Z,53.6
2018-04-16T01:32:17.819Z,53.6
2018-04-16T01:33:07.690Z,53.5
2018-04-16T01:33:57.677Z,53.6
2018-04-16T01:34:47.437Z,53.5
2018-04-16T01:35:38.129Z,53.5
2018-04-16T01:36:28.415Z,53.5
2018-04-16T01:37:17.089Z,53.5
2018-04-16T01:38:08.000Z,53.5
2018-04-16T01:38:58.042Z,53.5
2018-04-16T01:39:47.899Z,53.5
2018-04-16T01:40:38.186Z,53.5
2018-04-16T01:41:28.804Z,53.4
2018-04-16T01:42:18.616Z,53.4
2018-04-16T01:43:08.649Z,53.4
2018-04-16T01:43:58.980Z,53.4
2018-04-16T01:44:49.038Z,53.4
2018-04-16T01:45:38.566Z,53.4
2018-04-16T01:46:29.166Z,53.4
2018-04-16T01:47:18.699Z,53.4
2018-04-16T01:48:09.012Z,53.4
2018-04-16T01:48:59.097Z,53.4
2018-04-16T01:49:49.452Z,53.4
2018-04-16T01:50:38.928Z,53.4
2018-04-16T01:51:29.267Z,53.4
2018-04-16T01:52:19.612Z,53.4
2018-04-16T01:53:09.137Z,53.4
2018-04-16T01:53:59.464Z,53.4
2018-04-16T01:54:49.811Z,53.4
2018-04-16T01:55:39.567Z,53.4
2018-04-16T01:56:29.742Z,53.3
2018-04-16T01:57:19.769Z,53.3
2018-04-16T01:58:10.088Z,53.3
2018-04-16T01:58:59.573Z,53.3
2018-04-16T01:59:50.234Z,53.3
2018-04-16T02:00:39.703Z,53.3
2018-04-16T02:01:30.068Z,53.3
2018-04-16T02:02:20.395Z,53.3
2018-04-16T02:03:10.190Z,53.3
2018-04-16T02:04:00.500Z,53.3
2018-04-16T02:04:50.587Z,53.3
2018-04-16T02:05:40.345Z,53.3
2018-04-16T02:06:30.189Z,53.3
2018-04-16T02:07:20.517Z,53.3
2018-04-16T02:08:10.838Z,53.3
2018-04-16T02:09:00.892Z,53.3
2018-04-16T02:09:49.841Z,53.3
2018-04-16T02:10:40.179Z,53.2
2018-04-16T02:11:31.362Z,53.2
2018-04-16T02:12:21.198Z,53.2
2018-04-16T02:13:10.091Z,53.2
2018-04-16T02:14:01.041Z,53.2
2018-04-16T02:14:51.063Z,53.2
2018-04-16T02:15:41.406Z,53.2
2018-04-16T02:16:31.183Z,53.1
2018-04-16T02:17:20.924Z,53.2
2018-04-16T02:18:10.775Z,53.1
2018-04-16T02:19:01.111Z,53.1
2018-04-16T02:19:51.133Z,53.1
2018-04-16T02:20:41.785Z,53.1
2018-04-16T02:21:31.585Z,53.1
2018-04-16T02:22:21.902Z,53.1
2018-04-16T02:23:11.978Z,53.1
2018-04-16T02:24:01.745Z,53.1
2018-04-16T02:24:51.552Z,53.1
2018-04-16T02:25:42.179Z,53.1
2018-04-16T02:26:31.669Z,53.1
2018-04-16T02:27:22.309Z,53.1
2018-04-16T02:28:11.802Z,53.1
2018-04-16T02:29:02.169Z,53.1
2018-04-16T02:29:51.943Z,53
2018-04-16T02:30:41.994Z,53.1
2018-04-16T02:31:32.074Z,53
2018-04-16T02:32:22.396Z,53.1
2018-04-16T02:33:12.459Z,53
2018-04-16T02:34:02.822Z,53
2018-04-16T02:34:52.867Z,53
2018-04-16T02:35:42.690Z,53
2018-04-16T02:36:32.712Z,53
2018-04-16T02:37:23.095Z,53
2018-04-16T02:38:12.827Z,52.9
2018-04-16T02:39:02.909Z,53
2018-04-16T02:39:52.699Z,53
2018-04-16T02:40:42.491Z,52.9
2018-04-16T02:41:33.161Z,52.9
2018-04-16T02:42:23.240Z,52.9
2018-04-16T02:43:12.974Z,52.9
2018-04-16T02:44:03.604Z,52.9
2018-04-16T02:44:53.051Z,52.9
2018-04-16T02:45:43.400Z,52.9
2018-04-16T02:46:33.779Z,52.9
2018-04-16T02:47:22.690Z,52.9
2018-04-16T02:48:13.641Z,52.9
2018-04-16T02:49:03.985Z,52.9
2018-04-16T02:49:54.012Z,52.9
2018-04-16T02:50:44.088Z,52.9
2018-04-16T02:51:33.872Z,52.9
2018-04-16T02:52:23.942Z,52.8
2018-04-16T02:53:14.272Z,52.8
2018-04-16T02:54:03.800Z,52.7
2018-04-16T02:54:54.116Z,52.7
2018-04-16T02:55:43.966Z,52.6
2018-04-16T02:56:33.965Z,52.5
2018-04-16T02:57:24.297Z,52.4
2018-04-16T02:58:14.355Z,52.3
2018-04-16T02:59:04.453Z,52.1
2018-04-16T03:00:44.298Z,51.8
2018-04-16T03:01:34.906Z,51.6
2018-04-16T03:02:24.698Z,51.5
2018-04-16T03:03:14.216Z,51.4
2018-04-16T03:04:04.593Z,51.4
2018-04-16T03:04:54.611Z,51.4
2018-04-16T03:05:44.938Z,51.3
2018-04-16T03:06:34.985Z,51.3
2018-04-16T03:07:25.351Z,51.3
2018-04-16T03:08:15.416Z,51.3
2018-04-16T03:09:05.237Z,51.3
2018-04-16T03:09:55.540Z,51.2
2018-04-16T03:10:45.316Z,51.2
2018-04-16T03:11:35.691Z,51.2
2018-04-16T03:12:25.167Z,51.1
2018-04-16T03:13:15.524Z,51.1
2018-04-16T03:14:05.574Z,51.1
2018-04-16T03:14:55.926Z,51.1
2018-04-16T03:15:45.149Z,51.1
2018-04-16T03:16:35.769Z,51.1
2018-04-16T03:17:25.263Z,51.1
2018-04-16T03:18:16.176Z,51.1
2018-04-16T03:19:06.004Z,51.1
2018-04-16T03:19:56.292Z,51
2018-04-16T03:20:46.328Z,51.1
2018-04-16T03:21:35.868Z,51
2018-04-16T03:22:26.493Z,51
2018-04-16T03:23:16.340Z,51
2018-04-16T03:24:06.308Z,51
2018-04-16T03:24:56.095Z,51
2018-04-16T03:25:47.018Z,50.9
2018-04-16T03:26:35.960Z,50.9
2018-04-16T03:27:26.043Z,50.9
2018-04-16T03:28:16.648Z,50.9
2018-04-16T03:29:06.423Z,50.9
2018-04-16T03:29:56.535Z,50.9
2018-04-16T03:30:46.911Z,50.9
2018-04-16T03:31:36.916Z,50.9
2018-04-16T03:32:26.992Z,50.9
2018-04-16T03:33:17.016Z,50.9
2018-04-16T03:34:06.844Z,50.9
2018-04-16T03:34:56.302Z,50.9
2018-04-16T03:35:47.516Z,50.9
2018-04-16T03:36:37.584Z,50.9
2018-04-16T03:37:27.091Z,50.9
2018-04-16T03:38:17.152Z,50.9
2018-04-16T03:39:07.818Z,50.9
2018-04-16T03:39:57.553Z,50.8
2018-04-16T03:40:47.869Z,50.8
2018-04-16T03:41:37.101Z,50.8
2018-04-16T03:42:27.429Z,50.8
2018-04-16T03:43:16.898Z,50.8
2018-04-16T03:44:07.580Z,50.8
2018-04-16T03:44:58.226Z,50.8
2018-04-16T03:45:48.068Z,50.8
2018-04-16T03:46:38.147Z,50.8
2018-04-16T03:47:28.130Z,50.8
2018-04-16T03:48:17.605Z,50.8
2018-04-16T03:49:08.278Z,50.8
2018-04-16T03:49:58.354Z,50.8
2018-04-16T03:50:48.347Z,50.8
2018-04-16T03:51:38.435Z,50.8
2018-04-16T03:52:28.789Z,50.8
2018-04-16T03:53:18.543Z,50.8
2018-04-16T03:54:08.897Z,50.7
2018-04-16T03:54:58.412Z,50.8
2018-04-16T03:55:48.167Z,50.7
2018-04-16T03:56:38.816Z,50.7
2018-04-16T03:57:29.152Z,50.7
2018-04-16T03:58:18.942Z,50.7
2018-04-16T03:59:08.993Z,50.7
2018-04-16T03:59:59.358Z,50.7
2018-04-16T04:00:48.839Z,50.7
2018-04-16T04:01:38.434Z,50.7
2018-04-16T04:02:29.304Z,50.6
2018-04-16T04:03:19.037Z,50.6
2018-04-16T04:04:09.382Z,50.6
2018-04-16T04:04:58.864Z,50.6
2018-04-16T04:05:49.484Z,50.6
2018-04-16T04:06:39.286Z,50.6
2018-04-16T04:07:29.346Z,50.6
2018-04-16T04:08:19.694Z,50.6
2018-04-16T04:09:09.963Z,50.6
2018-04-16T04:09:59.526Z,50.5
2018-04-16T04:10:49.027Z,50.3
2018-04-16T04:11:39.941Z,50.2
2018-04-16T04:12:30.031Z,50.1
2018-04-16T04:13:19.772Z,49.9
2018-04-16T04:14:10.192Z,49.8
2018-04-16T04:15:00.493Z,49.8
2018-04-16T04:15:50.548Z,49.7
2018-04-16T04:16:40.618Z,49.7
2018-04-16T04:17:30.690Z,49.6
2018-04-16T04:18:19.913Z,49.6
2018-04-16T04:19:10.775Z,49.5
2018-04-16T04:20:00.875Z,49.5
2018-04-16T04:20:50.920Z,49.4
2018-04-16T04:21:40.118Z,49.4
2018-04-16T04:22:31.036Z,49.4
2018-04-16T04:23:20.559Z,49.4
2018-04-16T04:24:10.893Z,49.4
2018-04-16T04:25:01.463Z,49.4
2018-04-16T04:25:50.712Z,49.4
2018-04-16T04:26:40.800Z,49.3
2018-04-16T04:27:30.294Z,49.3
2018-04-16T04:28:21.187Z,49.3
2018-04-16T04:29:11.528Z,49.3
2018-04-16T04:30:01.607Z,49.3
2018-04-16T04:30:51.683Z,49.3
2018-04-16T04:31:41.430Z,49.3
2018-04-16T04:32:31.491Z,49.2
2018-04-16T04:33:21.636Z,49.2
2018-04-16T04:34:11.635Z,49.2
2018-04-16T04:35:01.406Z,49.2
2018-04-16T04:35:52.066Z,49.2
2018-04-16T04:36:42.171Z,49.2
2018-04-16T04:37:31.976Z,49.2
2018-04-16T04:38:21.999Z,49.1
2018-04-16T04:39:12.409Z,49.2
2018-04-16T04:40:02.078Z,49.1
2018-04-16T04:40:52.463Z,49.2
2018-04-16T04:41:41.636Z,49.1
2018-04-16T04:42:32.534Z,49.1
2018-04-16T04:43:22.355Z,49.1
2018-04-16T04:44:12.458Z,49.1
2018-04-16T04:45:02.463Z,49.1
2018-04-16T04:45:52.820Z,49.1
2018-04-16T04:46:42.361Z,49.1
2018-04-16T04:47:32.684Z,49
2018-04-16T04:48:22.683Z,48.9
2018-04-16T04:49:13.053Z,48.9
2018-04-16T04:50:03.117Z,48.8
2018-04-16T04:50:52.650Z,48.8
2018-04-16T04:51:42.968Z,48.8
2018-04-16T04:52:33.023Z,48.8
2018-04-16T04:53:23.383Z,48.8
2018-04-16T04:54:13.420Z,48.8
2018-04-16T04:55:03.212Z,48.8
2018-04-16T04:55:52.712Z,48.8
2018-04-16T04:56:43.358Z,48.8
2018-04-16T04:57:32.934Z,48.7
2018-04-16T04:58:23.785Z,48.7
2018-04-16T04:59:13.256Z,48.7
2018-04-16T05:00:03.904Z,48.7
2018-04-16T05:00:53.727Z,48.7
2018-04-16T05:01:43.419Z,48.7
2018-04-16T05:02:33.507Z,48.7
2018-04-16T05:03:23.845Z,48.7
2018-04-16T05:04:14.204Z,48.7
2018-04-16T05:05:04.233Z,48.6
2018-04-16T05:05:53.732Z,48.6
2018-04-16T05:06:44.422Z,48.5
2018-04-16T05:07:34.434Z,48.4
2018-04-16T05:08:24.240Z,48.4
2018-04-16T05:09:14.583Z,48.4
2018-04-16T05:10:04.377Z,48.4
2018-04-16T05:10:54.171Z,48.4
2018-04-16T05:11:43.924Z,48.3
2018-04-16T05:12:34.847Z,48.3
2018-04-16T05:13:24.642Z,48.3
2018-04-16T05:14:13.841Z,48.3
2018-04-16T05:15:05.019Z,48.2
2018-04-16T05:15:55.074Z,48.1
2018-04-16T05:16:44.566Z,47.9
2018-04-16T05:17:35.185Z,47.8
2018-04-16T05:18:25.247Z,47.7
2018-04-16T05:19:15.048Z,47.6
2018-04-16T05:20:04.825Z,47.6
2018-04-16T05:20:55.483Z,47.4
2018-04-16T05:21:45.208Z,47.4
2018-04-16T05:22:35.025Z,47.4
2018-04-16T05:23:25.418Z,47.4
2018-04-16T05:24:15.132Z,47.3
2018-04-16T05:25:05.780Z,47.3
2018-04-16T05:25:55.845Z,47.3
2018-04-16T05:26:45.887Z,47.3
2018-04-16T05:27:35.974Z,47.3
2018-04-16T05:28:25.509Z,47.3
2018-04-16T05:29:16.072Z,47.3
2018-04-16T05:30:06.145Z,47.3
2018-04-16T05:30:55.930Z,47.3
2018-04-16T05:31:46.004Z,47.3
2018-04-16T05:32:36.257Z,47.2
2018-04-16T05:33:26.110Z,47.2
2018-04-16T05:34:16.159Z,47.2
2018-04-16T05:35:06.536Z,47.2
2018-04-16T05:35:56.021Z,47.2
2018-04-16T05:36:45.826Z,47.2
2018-04-16T05:37:36.423Z,47.2
2018-04-16T05:38:25.926Z,47.2
2018-04-16T05:39:16.582Z,47.2
2018-04-16T05:40:06.869Z,47.1
2018-04-16T05:40:56.376Z,47.1
2018-04-16T05:41:47.019Z,47.2
2018-04-16T05:42:37.283Z,47.1
2018-04-16T05:43:26.866Z,47.1
2018-04-16T05:44:16.619Z,47.1
2018-04-16T05:45:06.686Z,47.1
2018-04-16T05:45:57.051Z,47.1
2018-04-16T05:46:47.433Z,47.1
2018-04-16T05:47:37.201Z,47.1
2018-04-16T05:48:26.963Z,47.1
2018-04-16T05:49:17.218Z,47.1
2018-04-16T05:50:07.386Z,47.1
2018-04-16T05:50:57.723Z,47.1
2018-04-16T05:51:47.783Z,47.1
2018-04-16T05:52:37.845Z,47.1
2018-04-16T05:53:27.356Z,47.1
2018-04-16T05:54:17.430Z,47.1
2018-04-16T05:55:07.493Z,47.1
2018-04-16T05:55:57.812Z,47.1
2018-04-16T05:56:47.321Z,47.1
2018-04-16T05:57:37.628Z,47.1
2018-04-16T05:58:28.276Z,47
2018-04-16T05:59:18.058Z,47.1
2018-04-16T06:00:08.150Z,47
2018-04-16T06:00:58.191Z,47
2018-04-16T06:01:47.773Z,47
2018-04-16T06:02:38.052Z,47
2018-04-16T06:03:28.365Z,47
2018-04-16T06:04:17.859Z,47
2018-04-16T06:05:07.707Z,47
2018-04-16T06:05:58.605Z,47
2018-04-16T06:06:48.910Z,47
2018-04-16T06:07:38.104Z,47
2018-04-16T06:08:28.469Z,47
2018-04-16T06:09:18.535Z,46.9
2018-04-16T06:10:08.920Z,46.9
2018-04-16T06:10:59.260Z,46.9
2018-04-16T06:11:48.456Z,46.9
2018-04-16T06:12:38.605Z,46.9
2018-04-16T06:13:29.182Z,46.9
2018-04-16T06:14:19.188Z,46.9
2018-04-16T06:15:08.682Z,46.9
2018-04-16T06:15:59.607Z,46.9
2018-04-16T06:16:48.942Z,46.9
2018-04-16T06:17:39.762Z,46.9
2018-04-16T06:18:28.943Z,46.9
2018-04-16T06:19:19.305Z,46.9
2018-04-16T06:20:09.365Z,46.9
2018-04-16T06:20:59.689Z,46.9
2018-04-16T06:21:49.485Z,46.9
2018-04-16T06:22:39.819Z,46.9
2018-04-16T06:23:29.607Z,46.9
2018-04-16T06:24:19.082Z,46.9
2018-04-16T06:25:10.317Z,46.9
2018-04-16T06:25:59.789Z,46.9
2018-04-16T06:26:50.171Z,46.8
2018-04-16T06:27:39.322Z,46.8
2018-04-16T06:28:30.263Z,46.8
2018-04-16T06:29:19.754Z,46.8
2018-04-16T06:30:09.907Z,46.8
2018-04-16T06:31:00.722Z,46.8
2018-04-16T06:31:50.304Z,46.8
2018-04-16T06:32:40.563Z,46.8
2018-04-16T06:33:30.901Z,46.8
2018-04-16T06:34:21.031Z,46.8
2018-04-16T06:35:11.025Z,46.8
2018-04-16T06:36:00.783Z,46.8
2018-04-16T06:36:51.512Z,46.8
2018-04-16T06:37:40.922Z,46.8
2018-04-16T06:38:31.252Z,46.8
2018-04-16T06:39:20.498Z,46.8
2018-04-16T06:40:11.402Z,46.8
2018-04-16T06:41:01.462Z,46.8
2018-04-16T06:41:51.262Z,46.8
2018-04-16T06:42:41.580Z,46.8
2018-04-16T06:43:30.515Z,46.8
2018-04-16T06:44:21.455Z,46.8
2018-04-16T06:45:11.770Z,46.8
2018-04-16T06:46:01.897Z,46.8
2018-04-16T06:46:51.152Z,46.7
2018-04-16T06:47:41.212Z,46.7
2018-04-16T06:48:32.049Z,46.7
2018-04-16T06:49:21.253Z,46.7
2018-04-16T06:50:11.872Z,46.7
2018-04-16T06:51:02.212Z,46.6
2018-04-16T06:51:51.434Z,46.6
2018-04-16T06:52:41.887Z,46.5
2018-04-16T06:53:32.417Z,46.4
2018-04-16T06:54:22.199Z,46.3
2018-04-16T06:55:12.234Z,46.3
2018-04-16T06:56:02.346Z,46.2
2018-04-16T06:56:52.652Z,46.2
2018-04-16T06:57:42.167Z,46.1
2018-04-16T06:58:31.666Z,46.1
2018-04-16T06:59:22.925Z,46.1
2018-04-16T07:00:13.022Z,46
2018-04-16T07:01:03.175Z,46
2018-04-16T07:01:52.214Z,45.9
2018-04-16T07:02:42.612Z,45.9
2018-04-16T07:03:33.209Z,45.9
2018-04-16T07:04:21.650Z,45.9
2018-04-16T07:05:12.860Z,45.9
2018-04-16T07:06:02.632Z,45.9
2018-04-16T07:06:52.870Z,45.9
2018-04-16T07:07:43.289Z,45.9
2018-04-16T07:08:33.380Z,45.9
2018-04-16T07:09:22.783Z,45.9
2018-04-16T07:10:13.923Z,45.9
2018-04-16T07:11:03.275Z,45.9
2018-04-16T07:11:53.807Z,45.9
2018-04-16T07:12:43.290Z,45.9
2018-04-16T07:13:33.054Z,45.9
2018-04-16T07:14:24.001Z,45.8
2018-04-16T07:15:13.493Z,45.8
2018-04-16T07:16:04.616Z,45.8
2018-04-16T07:16:53.610Z,45.8
2018-04-16T07:17:43.756Z,45.8
2018-04-16T07:18:33.738Z,45.8
2018-04-16T07:19:23.543Z,45.8
2018-04-16T07:20:13.595Z,45.8
2018-04-16T07:21:04.495Z,45.8
2018-04-16T07:21:54.005Z,45.8
2018-04-16T07:22:44.627Z,45.8
2018-04-16T07:23:34.440Z,45.8
2018-04-16T07:24:24.586Z,45.8
2018-04-16T07:25:14.220Z,45.8
2018-04-16T07:26:04.874Z,45.8
2018-04-16T07:26:54.673Z,45.8
2018-04-16T07:27:44.530Z,45.8
2018-04-16T07:28:34.501Z,45.8
2018-04-16T07:29:23.803Z,45.7
2018-04-16T07:30:14.319Z,45.8
2018-04-16T07:31:04.694Z,45.7
2018-04-16T07:31:54.736Z,45.7
2018-04-16T07:32:45.093Z,45.7
2018-04-16T07:33:35.180Z,45.7
2018-04-16T07:34:25.229Z,45.7
2018-04-16T07:35:15.536Z,45.7
2018-04-16T07:36:04.852Z,45.7
2018-04-16T07:36:54.823Z,45.7
2018-04-16T07:37:45.758Z,45.7
2018-04-16T07:38:35.785Z,45.7
2018-04-16T07:39:25.275Z,45.7
2018-04-16T07:40:15.977Z,45.7
2018-04-16T07:41:05.416Z,45.7
2018-04-16T07:41:55.495Z,45.7
2018-04-16T07:42:45.864Z,45.7
2018-04-16T07:43:35.612Z,45.6
2018-04-16T07:44:25.416Z,45.6
2018-04-16T07:45:16.031Z,45.6
2018-04-16T07:46:06.068Z,45.6
2018-04-16T07:46:55.600Z,45.6
2018-04-16T07:47:45.366Z,45.6
2018-04-16T07:48:36.557Z,45.6
2018-04-16T07:49:26.151Z,45.6
2018-04-16T07:50:16.114Z,45.6
2018-04-16T07:51:06.743Z,45.6
2018-04-16T07:51:56.564Z,45.6
2018-04-16T07:52:46.569Z,45.6
2018-04-16T07:53:35.915Z,45.6
2018-04-16T07:54:26.197Z,45.6
2018-04-16T07:55:17.039Z,45.6
2018-04-16T07:56:07.113Z,45.6
2018-04-16T07:56:56.625Z,45.6
2018-04-16T07:57:47.265Z,45.6
2018-04-16T07:58:37.319Z,45.6
2018-04-16T07:59:26.878Z,45.6
2018-04-16T08:00:17.172Z,45.6
2018-04-16T08:01:06.741Z,45.6
2018-04-16T08:01:56.491Z,45.6
2018-04-16T08:02:46.326Z,45.5
2018-04-16T08:03:36.948Z,45.5
2018-04-16T08:04:27.446Z,45.6
2018-04-16T08:05:17.548Z,45.5
2018-04-16T08:06:07.875Z,45.5
2018-04-16T08:06:57.363Z,45.5
2018-04-16T08:07:47.728Z,45.5
2018-04-16T08:08:38.090Z,45.5
2018-04-16T08:09:27.825Z,45.5
2018-04-16T08:10:17.893Z,45.5
2018-04-16T08:11:07.991Z,45.4
2018-04-16T08:11:58.329Z,45.4
2018-04-16T08:12:47.836Z,45.4
2018-04-16T08:13:37.893Z,45.4
2018-04-16T08:14:27.951Z,45.4
2018-04-16T08:15:17.997Z,45.4
2018-04-16T08:16:08.659Z,45.4
2018-04-16T08:16:58.131Z,45.4
2018-04-16T08:17:47.931Z,45.4
2018-04-16T08:18:38.253Z,45.4
2018-04-16T08:19:28.924Z,45.4
2018-04-16T08:20:18.363Z,45.4
2018-04-16T08:21:08.980Z,45.4
2018-04-16T08:21:59.050Z,45.4
2018-04-16T08:22:49.124Z,45.4
2018-04-16T08:23:39.175Z,45.4
2018-04-16T08:24:28.701Z,45.4
2018-04-16T08:25:19.332Z,45.4
2018-04-16T08:26:09.365Z,45.4
2018-04-16T08:26:59.584Z,45.4
2018-04-16T08:27:49.498Z,45.4
2018-04-16T08:28:39.283Z,45.4
2018-04-16T08:29:29.073Z,45.4
2018-04-16T08:30:19.124Z,45.4
2018-04-16T08:31:09.742Z,45.4
2018-04-16T08:31:59.836Z,45.4
2018-04-16T08:32:49.865Z,45.4
2018-04-16T08:33:39.943Z,45.4
2018-04-16T08:34:29.200Z,45.4
2018-04-16T08:35:19.509Z,45.3
2018-04-16T08:36:09.715Z,45.4
2018-04-16T08:36:59.937Z,45.3
2018-04-16T08:37:50.228Z,45.3
2018-04-16T08:38:39.491Z,45.3
2018-04-16T08:39:30.377Z,45.3
2018-04-16T08:40:20.177Z,45.3
2018-04-16T08:41:10.230Z,45.3
2018-04-16T08:42:00.279Z,45.3
2018-04-16T08:42:50.330Z,45.3
2018-04-16T08:43:40.686Z,45.3
2018-04-16T08:44:30.194Z,45.3
2018-04-16T08:45:20.261Z,45.3
2018-04-16T08:46:10.311Z,45.3
2018-04-16T08:47:00.646Z,45.3
2018-04-16T08:47:50.461Z,45.3
2018-04-16T08:48:40.516Z,45.3
2018-04-16T08:49:30.587Z,45.3
2018-04-16T08:50:21.197Z,45.3
2018-04-16T08:51:10.684Z,45.3
2018-04-16T08:52:01.351Z,45.3
2018-04-16T08:52:51.371Z,45.2
2018-04-16T08:53:40.866Z,45.3
2018-04-16T08:54:30.952Z,45.2
2018-04-16T08:55:21.603Z,45.3
2018-04-16T08:56:11.626Z,45.2
2018-04-16T08:57:01.116Z,45.2
2018-04-16T08:57:51.485Z,45.2
2018-04-16T08:58:41.797Z,45.2
2018-04-16T08:59:31.894Z,45.2
2018-04-16T09:00:21.941Z,45.2
2018-04-16T09:01:12.012Z,45.2
2018-04-16T09:02:02.076Z,45.1
2018-04-16T09:02:52.141Z,45.2
2018-04-16T09:03:42.228Z,45.1
2018-04-16T09:04:32.255Z,45.1
2018-04-16T09:05:22.047Z,45.1
2018-04-16T09:06:12.417Z,45.1
2018-04-16T09:07:01.870Z,45.1
2018-04-16T09:07:52.231Z,45.1
2018-04-16T09:08:42.477Z,45.1
2018-04-16T09:09:32.687Z,45.1
2018-04-16T09:10:22.693Z,45.1
2018-04-16T09:11:12.773Z,45.1
2018-04-16T09:12:02.242Z,45.1
2018-04-16T09:12:52.350Z,45.1
2018-04-16T09:13:42.948Z,45.1
2018-04-16T09:14:32.212Z,45.1
2018-04-16T09:15:22.811Z,45.1
2018-04-16T09:16:12.597Z,45.1
2018-04-16T09:17:03.237Z,45.1
2018-04-16T09:17:52.984Z,45.1
2018-04-16T09:18:43.052Z,45.1
2018-04-16T09:19:33.399Z,45.1
2018-04-16T09:20:23.222Z,45.1
2018-04-16T09:21:13.269Z,45.1
2018-04-16T09:22:02.755Z,45.1
2018-04-16T09:22:53.115Z,45.1
2018-04-16T09:23:43.170Z,45
2018-04-16T09:24:32.931Z,45
2018-04-16T09:25:23.903Z,45
2018-04-16T09:26:13.632Z,45
2018-04-16T09:27:03.120Z,45
2018-04-16T09:27:52.991Z,45
2018-04-16T09:28:43.845Z,45
2018-04-16T09:29:33.900Z,45
2018-04-16T09:30:23.663Z,45
2018-04-16T09:31:14.018Z,45
2018-04-16T09:32:04.051Z,45
2018-04-16T09:32:53.837Z,44.9
2018-04-16T09:33:44.490Z,45
2018-04-16T09:34:33.683Z,44.9
2018-04-16T09:35:23.475Z,44.9
2018-04-16T09:36:14.385Z,44.9
2018-04-16T09:37:03.877Z,44.9
2018-04-16T09:37:54.684Z,44.9
2018-04-16T09:38:44.865Z,44.9
2018-04-16T09:39:33.697Z,44.9
2018-04-16T09:40:24.689Z,44.9
2018-04-16T09:41:14.728Z,44.9
2018-04-16T09:42:04.828Z,44.9
2018-04-16T09:42:54.872Z,44.9
2018-04-16T09:43:44.647Z,44.9
2018-04-16T09:44:34.452Z,44.9
2018-04-16T09:45:24.784Z,44.9
2018-04-16T09:46:14.915Z,44.9
2018-04-16T09:47:05.484Z,44.9
2018-04-16T09:47:55.550Z,44.9
2018-04-16T09:48:44.822Z,44.9
2018-04-16T09:49:35.425Z,44.9
2018-04-16T09:50:25.337Z,44.9
2018-04-16T09:51:15.547Z,44.9
2018-04-16T09:52:05.594Z,44.9
2018-04-16T09:52:55.349Z,44.8
2018-04-16T09:53:46.044Z,44.8
2018-04-16T09:54:35.494Z,44.8
2018-04-16T09:55:25.551Z,44.8
2018-04-16T09:56:15.619Z,44.8
2018-04-16T09:57:05.986Z,44.8
2018-04-16T09:57:55.742Z,44.8
2018-04-16T09:58:45.788Z,44.8
2018-04-16T09:59:35.848Z,44.8
2018-04-16T10:00:25.993Z,44.8
2018-04-16T10:01:15.967Z,44.8
2018-04-16T10:02:06.341Z,44.8
2018-04-16T10:02:56.719Z,44.8
2018-04-16T10:03:46.751Z,44.8
2018-04-16T10:04:36.770Z,44.8
2018-04-16T10:05:26.031Z,44.8
2018-04-16T10:06:16.356Z,44.8
2018-04-16T10:07:06.130Z,44.8
2018-04-16T10:07:56.800Z,44.8
2018-04-16T10:08:47.093Z,44.8
2018-04-16T10:09:37.161Z,44.8
2018-04-16T10:10:27.219Z,44.8
2018-04-16T10:11:17.291Z,44.7
2018-04-16T10:12:07.362Z,44.7
2018-04-16T10:12:57.125Z,44.8
2018-04-16T10:13:47.225Z,44.7
2018-04-16T10:14:37.553Z,44.7
2018-04-16T10:15:26.202Z,44.7
2018-04-16T10:16:17.367Z,44.6
2018-04-16T10:17:07.723Z,44.6
2018-04-16T10:17:57.312Z,44.6
2018-04-16T10:18:47.018Z,44.5
2018-04-16T10:19:37.967Z,44.5
2018-04-16T10:20:27.451Z,44.5
2018-04-16T10:21:17.765Z,44.5
2018-04-16T10:22:07.844Z,44.4
2018-04-16T10:22:57.623Z,44.4
2018-04-16T10:23:46.845Z,44.4
2018-04-16T10:24:38.335Z,44.4
2018-04-16T10:25:28.072Z,44.4
2018-04-16T10:26:17.294Z,44.4
2018-04-16T10:27:08.207Z,44.4
2018-04-16T10:27:58.296Z,44.4
2018-04-16T10:28:48.052Z,44.4
2018-04-16T10:29:38.115Z,44.4
2018-04-16T10:30:28.462Z,44.4
2018-04-16T10:31:17.963Z,44.4
2018-04-16T10:32:08.281Z,44.4
2018-04-16T10:32:58.432Z,44.4
2018-04-16T10:33:48.440Z,44.4
2018-04-16T10:34:38.482Z,44.4
2018-04-16T10:35:29.116Z,44.4
2018-04-16T10:36:18.872Z,44.4
2018-04-16T10:37:09.251Z,44.3
2018-04-16T10:37:58.730Z,44.4
2018-04-16T10:38:48.834Z,44.4
2018-04-16T10:39:39.456Z,44.3
2018-04-16T10:40:29.570Z,44.3
2018-04-16T10:41:19.581Z,44.3
2018-04-16T10:42:09.341Z,44.3
2018-04-16T10:42:58.833Z,44.3
2018-04-16T10:43:49.451Z,44.3
2018-04-16T10:44:39.254Z,44.3
2018-04-16T10:45:29.293Z,44.3
2018-04-16T10:46:19.928Z,44.3
2018-04-16T10:47:10.187Z,44.3
2018-04-16T10:47:59.960Z,44.3
2018-04-16T10:48:50.615Z,44.3
2018-04-16T10:49:40.513Z,44.3
2018-04-16T10:50:30.499Z,44.3
2018-04-16T10:51:20.806Z,44.3
2018-04-16T10:52:10.563Z,44.3
2018-04-16T10:53:00.636Z,44.3
2018-04-16T10:53:51.045Z,44.3
2018-04-16T10:54:40.778Z,44.3
2018-04-16T10:55:31.179Z,44.2
2018-04-16T10:56:20.898Z,44.3
2018-04-16T10:57:10.715Z,44.3
2018-04-16T10:58:01.315Z,44.3
2018-04-16T10:58:50.524Z,44.2
2018-04-16T10:59:41.112Z,44.2
2018-04-16T11:00:31.526Z,44.2
2018-04-16T11:01:21.558Z,44.2
2018-04-16T11:02:11.055Z,44.2
2018-04-16T11:03:00.816Z,44.2
2018-04-16T11:03:51.465Z,44.2
2018-04-16T11:04:41.537Z,44.2
2018-04-16T11:05:31.020Z,44.2
2018-04-16T11:06:22.062Z,44.2
2018-04-16T11:07:11.682Z,44.1
2018-04-16T11:08:00.901Z,44.1
2018-04-16T11:08:51.558Z,44.1
2018-04-16T11:09:41.898Z,44.1